createdAt,value
2023-05-11T00:00:15.919Z,101037.75
2023-05-11T00:02:43.237Z,101045.03
2023-05-11T00:05:09.977Z,101040.22
2023-05-11T00:07:36.535Z,101044.31
2023-05-11T00:10:03.011Z,101041.84
2023-05-11T00:12:29.461Z,101044.53
2023-05-11T00:14:56.112Z,101039.78
2023-05-11T00:17:22.760Z,101041.31
2023-05-11T00:19:49.494Z,101043.72
2023-05-11T00:22:16.210Z,101038.94
2023-05-11T00:24:42.721Z,101034.88
2023-05-11T00:27:09.193Z,101039.66
2023-05-11T00:29:35.800Z,101038.13
2023-05-11T00:32:02.319Z,101045.34
2023-05-11T00:34:28.794Z,101040.28
2023-05-11T00:36:55.254Z,101046.88
2023-05-11T00:39:21.765Z,101045.81
2023-05-11T00:41:48.214Z,101043.44
2023-05-11T00:44:14.768Z,101044.16
2023-05-11T00:46:41.957Z,101037.00
2023-05-11T00:49:09.592Z,101032.72
2023-05-11T00:51:36.276Z,101033.16
2023-05-11T00:54:02.794Z,101032.00
2023-05-11T00:56:29.441Z,101035.19
2023-05-11T00:58:55.923Z,101035.63
2023-05-11T01:01:22.604Z,101036.97
2023-05-11T01:03:49.691Z,101030.56
2023-05-11T01:06:27.694Z,101033.22
2023-05-11T01:09:21.381Z,101036.22
2023-05-11T01:12:00.713Z,101036.28
2023-05-11T01:14:29.703Z,101039.38
2023-05-11T01:17:03.495Z,101046.19
2023-05-11T01:19:47.554Z,101042.69
2023-05-11T01:22:28.861Z,101048.56
2023-05-11T01:25:21.188Z,101051.88
2023-05-11T01:28:23.228Z,101047.94
2023-05-11T01:30:57.766Z,101046.69
2023-05-11T01:33:34.079Z,101044.41
2023-05-11T01:36:05.581Z,101044.84
2023-05-11T01:38:35.386Z,101057.22
2023-05-11T01:41:09.908Z,101049.59
2023-05-11T01:43:38.020Z,101056.81
2023-05-11T01:46:06.745Z,101052.88
2023-05-11T01:48:38.079Z,101049.97
2023-05-11T01:51:05.691Z,101058.75
2023-05-11T01:53:35.403Z,101046.06
2023-05-11T01:56:02.992Z,101054.84
2023-05-11T01:58:31.009Z,101056.47
2023-05-11T02:01:00.213Z,101055.66
2023-05-11T02:03:29.548Z,101050.16
2023-05-11T02:05:58.345Z,101052.88
2023-05-11T02:08:27.165Z,101054.81
2023-05-11T02:10:54.855Z,101054.41
2023-05-11T02:13:22.845Z,101051.53
2023-05-11T02:15:52.006Z,101058.34
2023-05-11T02:18:20.646Z,101063.44
2023-05-11T02:20:48.165Z,101053.47
2023-05-11T02:23:14.971Z,101058.28
2023-05-11T02:25:43.154Z,101065.03
2023-05-11T02:28:09.775Z,101066.31
2023-05-11T02:30:44.549Z,101066.41
2023-05-11T02:33:14.504Z,101066.41
2023-05-11T02:35:43.536Z,101069.19
2023-05-11T02:38:12.542Z,101064.09
2023-05-11T02:40:49.087Z,101066.88
2023-05-11T02:43:21.871Z,101065.97
2023-05-11T02:45:52.505Z,101073.94
2023-05-11T02:48:23.846Z,101076.34
2023-05-11T02:50:52.353Z,101076.34
2023-05-11T02:53:21.861Z,101079.63
2023-05-11T02:55:50.575Z,101070.16
2023-05-11T02:58:18.610Z,101071.72
2023-05-11T03:00:45.805Z,101074.13
2023-05-11T03:03:12.868Z,101074.19
2023-05-11T03:05:39.844Z,101071.78
2023-05-11T03:08:06.456Z,101072.56
2023-05-11T03:10:33.284Z,101072.25
2023-05-11T03:13:00.391Z,101074.97
2023-05-11T03:15:27.838Z,101079.34
2023-05-11T03:17:56.070Z,101080.50
2023-05-11T03:20:23.721Z,101081.25
2023-05-11T03:22:51.994Z,101071.34
2023-05-11T03:25:20.126Z,101077.31
2023-05-11T03:27:47.351Z,101071.31
2023-05-11T03:30:15.707Z,101070.59
2023-05-11T03:32:42.424Z,101061.44
2023-05-11T03:35:09.480Z,101067.41
2023-05-11T03:37:38.205Z,101073.28
2023-05-11T03:40:07.726Z,101071.34
2023-05-11T03:42:36.304Z,101075.34
2023-05-11T03:45:03.251Z,101069.41
2023-05-11T03:47:32.552Z,101073.88
2023-05-11T03:49:59.811Z,101072.91
2023-05-11T03:52:26.612Z,101066.88
2023-05-11T03:54:53.430Z,101056.47
2023-05-11T03:57:19.966Z,101060.06
2023-05-11T03:59:46.505Z,101058.03
2023-05-11T04:02:13.202Z,101060.00
2023-05-11T04:04:39.702Z,101056.38
2023-05-11T04:07:06.320Z,101046.47
2023-05-11T04:09:32.817Z,101062.47
2023-05-11T04:11:59.514Z,101061.63
2023-05-11T04:14:25.951Z,101054.03
2023-05-11T04:16:52.510Z,101059.59
2023-05-11T04:19:19.259Z,101054.81
2023-05-11T04:21:46.742Z,101056.38
2023-05-11T04:24:13.195Z,101059.91
2023-05-11T04:26:39.638Z,101060.28
2023-05-11T04:29:06.153Z,101057.09
2023-05-11T04:31:32.723Z,101055.44
2023-05-11T04:33:59.281Z,101056.56
2023-05-11T04:36:26.068Z,101053.72
2023-05-11T04:38:53.231Z,101058.06
2023-05-11T04:41:19.805Z,101063.22
2023-05-11T04:43:46.238Z,101063.19
2023-05-11T04:46:12.709Z,101064.34
2023-05-11T04:48:39.173Z,101065.97
2023-05-11T04:51:06.797Z,101073.94
2023-05-11T04:53:33.314Z,101072.72
2023-05-11T04:55:59.817Z,101079.84
2023-05-11T04:58:26.289Z,101073.50
2023-05-11T05:00:52.758Z,101079.94
2023-05-11T05:03:19.326Z,101080.03
2023-05-11T05:05:45.813Z,101089.94
2023-05-11T05:08:12.272Z,101080.88
2023-05-11T05:10:38.746Z,101082.09
2023-05-11T05:13:05.352Z,101080.06
2023-05-11T05:15:31.857Z,101078.09
2023-05-11T05:17:58.380Z,101092.47
2023-05-11T05:20:24.949Z,101085.69
2023-05-11T05:22:51.903Z,101096.13
2023-05-11T05:25:18.631Z,101093.25
2023-05-11T05:27:45.314Z,101097.66
2023-05-11T05:30:12.064Z,101103.19
2023-05-11T05:32:38.601Z,101100.06
2023-05-11T05:35:05.815Z,101110.97
2023-05-11T05:37:32.293Z,101109.13
2023-05-11T05:39:58.755Z,101106.66
2023-05-11T05:42:25.306Z,101108.94
2023-05-11T05:44:52.273Z,101102.47
2023-05-11T05:47:18.692Z,101107.09
2023-05-11T05:49:45.255Z,101110.94
2023-05-11T05:52:11.945Z,101113.66
2023-05-11T05:54:38.510Z,101110.66
2023-05-11T05:57:04.978Z,101106.66
2023-05-11T05:59:31.414Z,101109.94
2023-05-11T06:01:57.963Z,101119.16
2023-05-11T06:04:24.485Z,101113.69
2023-05-11T06:06:51.179Z,101115.16
2023-05-11T06:09:17.680Z,101119.09
2023-05-11T06:11:44.139Z,101128.22
2023-05-11T06:14:10.744Z,101124.91
2023-05-11T06:16:40.167Z,101133.88
2023-05-11T06:19:08.296Z,101129.53
2023-05-11T06:21:34.791Z,101132.44
2023-05-11T06:24:01.276Z,101132.75
2023-05-11T06:26:28.580Z,101128.91
2023-05-11T06:28:55.096Z,101130.13
2023-05-11T06:31:23.177Z,101127.09
2023-05-11T06:33:50.296Z,101119.56
2023-05-11T06:36:16.799Z,101124.91
2023-05-11T06:38:43.278Z,101118.28
2023-05-11T06:41:11.465Z,101129.69
2023-05-11T06:43:38.402Z,101124.94
2023-05-11T06:46:05.119Z,101130.94
2023-05-11T06:48:31.667Z,101126.16
2023-05-11T06:50:58.226Z,101135.22
2023-05-11T06:53:24.739Z,101130.41
2023-05-11T06:55:51.631Z,101132.75
2023-05-11T06:58:20.624Z,101130.72
2023-05-11T07:00:47.434Z,101134.63
2023-05-11T07:03:13.981Z,101130.25
2023-05-11T07:05:40.624Z,101126.38
2023-05-11T07:08:07.262Z,101125.72
2023-05-11T07:10:33.820Z,101122.28
2023-05-11T07:13:00.281Z,101115.31
2023-05-11T07:15:26.744Z,101122.69
2023-05-11T07:17:53.566Z,101121.53
2023-05-11T07:20:20.426Z,101122.63
2023-05-11T07:22:47.086Z,101125.63
2023-05-11T07:25:13.701Z,101126.94
2023-05-11T07:27:40.183Z,101127.63
2023-05-11T07:30:07.148Z,101114.78
2023-05-11T07:32:33.903Z,101122.16
2023-05-11T07:35:00.453Z,101114.69
2023-05-11T07:37:26.967Z,101126.41
2023-05-11T07:39:54.259Z,101123.16
2023-05-11T07:42:20.749Z,101127.09
2023-05-11T07:44:47.225Z,101125.53
2023-05-11T07:47:15.264Z,101124.28
2023-05-11T07:49:44.122Z,101126.28
2023-05-11T07:52:11.652Z,101118.69
2023-05-11T07:54:38.831Z,101124.41
2023-05-11T07:57:05.876Z,101125.63
2023-05-11T07:59:32.595Z,101124.50
2023-05-11T08:01:59.499Z,101126.69
2023-05-11T08:04:27.166Z,101127.25
2023-05-11T08:06:53.861Z,101125.88
2023-05-11T08:09:20.321Z,101126.00
2023-05-11T08:11:46.834Z,101132.59
2023-05-11T08:14:13.571Z,101129.72
2023-05-11T08:16:40.227Z,101129.19
2023-05-11T08:19:06.821Z,101133.13
2023-05-11T08:21:33.315Z,101130.88
2023-05-11T08:23:59.781Z,101130.25
2023-05-11T08:26:26.258Z,101133.41
2023-05-11T08:28:52.825Z,101130.91
2023-05-11T08:31:19.335Z,101130.44
2023-05-11T08:33:45.947Z,101125.00
2023-05-11T08:36:15.714Z,101120.25
2023-05-11T08:38:42.405Z,101131.06
2023-05-11T08:41:12.359Z,101133.16
2023-05-11T08:43:40.694Z,101127.91
2023-05-11T08:46:08.828Z,101126.16
2023-05-11T08:48:35.959Z,101130.97
2023-05-11T08:51:04.319Z,101129.66
2023-05-11T08:53:30.913Z,101126.59
2023-05-11T08:55:59.755Z,101135.88
2023-05-11T08:58:27.582Z,101128.69
2023-05-11T09:00:54.543Z,101137.00
2023-05-11T09:03:22.441Z,101124.94
2023-05-11T09:05:50.131Z,101123.78
2023-05-11T09:08:18.944Z,101125.63
2023-05-11T09:10:45.966Z,101125.97
2023-05-11T09:13:12.800Z,101127.88
2023-05-11T09:15:39.480Z,101128.84
2023-05-11T09:18:06.312Z,101135.28
2023-05-11T09:20:34.714Z,101128.00
2023-05-11T09:23:01.528Z,101121.09
2023-05-11T09:25:33.562Z,101115.41
2023-05-11T09:28:00.826Z,101122.72
2023-05-11T09:30:27.649Z,101116.78
2023-05-11T09:33:02.261Z,101111.47
2023-05-11T09:35:33.967Z,101117.66
2023-05-11T09:38:07.820Z,101117.31
2023-05-11T09:40:36.166Z,101117.72
2023-05-11T09:43:20.569Z,101110.69
2023-05-11T09:45:49.799Z,101113.00
2023-05-11T09:48:18.969Z,101107.19
2023-05-11T09:50:46.627Z,101109.44
2023-05-11T09:53:15.927Z,101111.91
2023-05-11T09:55:53.465Z,101112.25
2023-05-11T09:58:19.938Z,101114.63
2023-05-11T10:00:51.251Z,101108.69
2023-05-11T10:03:18.646Z,101109.13
2023-05-11T10:05:59.683Z,101104.53
2023-05-11T10:08:31.150Z,101110.91
2023-05-11T10:10:58.284Z,101111.53
2023-05-11T10:13:24.879Z,101113.72
2023-05-11T10:15:52.551Z,101114.28
2023-05-11T10:18:20.329Z,101115.75
2023-05-11T10:20:47.671Z,101103.78
2023-05-11T10:23:15.109Z,101108.94
2023-05-11T10:25:42.481Z,101108.91
2023-05-11T10:28:09.544Z,101109.56
2023-05-11T10:30:37.232Z,101105.31
2023-05-11T10:33:05.169Z,101108.78
2023-05-11T10:35:32.617Z,101106.94
2023-05-11T10:38:01.009Z,101095.38
2023-05-11T10:40:28.064Z,101097.94
2023-05-11T10:43:17.846Z,101104.22
2023-05-11T10:45:57.934Z,101096.78
2023-05-11T10:48:33.075Z,101105.38
2023-05-11T10:51:34.172Z,101106.41
2023-05-11T10:54:07.463Z,101100.75
2023-05-11T10:56:53.023Z,101101.91
2023-05-11T10:59:41.797Z,101104.13
2023-05-11T11:02:09.029Z,101098.91
2023-05-11T11:04:50.510Z,101102.97
2023-05-11T11:07:19.469Z,101106.84
2023-05-11T11:10:00.703Z,101094.44
2023-05-11T11:12:29.551Z,101093.03
2023-05-11T11:14:58.922Z,101092.19
2023-05-11T11:17:27.883Z,101093.50
2023-05-11T11:19:55.064Z,101092.97
2023-05-11T11:22:41.525Z,101093.25
2023-05-11T11:25:12.435Z,101083.97
2023-05-11T11:27:41.807Z,101093.53
2023-05-11T11:30:24.491Z,101082.16
2023-05-11T11:32:56.883Z,101094.66
2023-05-11T11:35:42.162Z,101095.41
2023-05-11T11:38:10.508Z,101096.03
2023-05-11T11:43:21.101Z,101086.72
2023-05-11T11:45:59.658Z,101086.44
2023-05-11T11:48:40.674Z,101084.38
2023-05-11T11:51:10.347Z,101079.44
2023-05-11T11:53:43.753Z,101084.84
2023-05-11T11:56:16.013Z,101088.41
2023-05-11T11:58:42.499Z,101081.16
2023-05-11T12:01:12.001Z,101091.31
2023-05-11T12:03:39.667Z,101086.25
2023-05-11T12:06:07.989Z,101083.97
2023-05-11T12:08:36.314Z,101085.06
2023-05-11T12:11:05.360Z,101081.34
2023-05-11T12:13:33.296Z,101089.91
2023-05-11T12:16:09.336Z,101078.19
2023-05-11T12:18:36.470Z,101073.66
2023-05-11T12:21:03.179Z,101078.66
2023-05-11T12:23:30.479Z,101074.06
2023-05-11T12:26:04.406Z,101081.19
2023-05-11T12:28:30.967Z,101077.72
2023-05-11T12:30:59.924Z,101074.75
2023-05-11T12:33:27.335Z,101072.59
2023-05-11T12:35:55.905Z,101062.69
2023-05-11T12:38:22.639Z,101072.38
2023-05-11T12:40:50.386Z,101071.03
2023-05-11T12:43:18.751Z,101070.19
2023-05-11T12:45:46.693Z,101062.69
2023-05-11T12:48:14.193Z,101063.75
2023-05-11T12:50:49.538Z,101068.91
2023-05-11T12:53:19.717Z,101063.50
2023-05-11T12:55:57.923Z,101065.69
2023-05-11T12:58:24.443Z,101064.06
2023-05-11T13:00:50.967Z,101073.56
2023-05-11T13:03:28.334Z,101076.72
2023-05-11T13:06:06.275Z,101074.88
2023-05-11T13:08:32.956Z,101077.94
2023-05-11T13:11:24.562Z,101077.56
2023-05-11T13:13:56.995Z,101073.13
2023-05-11T13:16:28.416Z,101073.13
2023-05-11T13:19:02.954Z,101077.28
2023-05-11T13:21:30.312Z,101082.06
2023-05-11T13:23:56.840Z,101092.63
2023-05-11T13:26:25.369Z,101089.25
2023-05-11T13:29:05.750Z,101078.53
2023-05-11T13:31:49.016Z,101087.25
2023-05-11T13:34:15.897Z,101091.66
2023-05-11T13:36:43.156Z,101088.03
2023-05-11T13:39:09.985Z,101097.06
2023-05-11T13:41:36.849Z,101091.56
2023-05-11T13:44:03.625Z,101102.53
2023-05-11T13:46:30.199Z,101099.13
2023-05-11T13:48:56.795Z,101093.03
2023-05-11T13:51:23.318Z,101102.16
2023-05-11T13:53:49.784Z,101092.78
2023-05-11T13:56:19.401Z,101088.34
2023-05-11T13:58:46.167Z,101091.16
2023-05-11T14:01:12.865Z,101090.03
2023-05-11T14:03:39.686Z,101097.44
2023-05-11T14:06:06.450Z,101098.56
2023-05-11T14:08:32.865Z,101104.00
2023-05-11T14:10:59.264Z,101098.38
2023-05-11T14:13:25.703Z,101106.28
2023-05-11T14:15:52.280Z,101110.72
2023-05-11T14:18:18.926Z,101104.78
2023-05-11T14:20:45.973Z,101099.97
2023-05-11T14:23:12.648Z,101101.09
2023-05-11T14:25:39.154Z,101109.75
2023-05-11T14:28:05.679Z,101110.13
2023-05-11T14:30:32.944Z,101110.56
2023-05-11T14:32:59.444Z,101109.69
2023-05-11T14:35:26.018Z,101114.84
2023-05-11T14:37:54.439Z,101110.84
2023-05-11T14:40:21.129Z,101116.00
2023-05-11T14:42:47.604Z,101097.44
2023-05-11T14:45:14.219Z,101106.59
2023-05-11T14:47:40.809Z,101107.91
2023-05-11T14:50:08.192Z,101111.00
2023-05-11T14:52:34.832Z,101106.59
2023-05-11T14:55:01.340Z,101105.59
2023-05-11T14:57:27.873Z,101105.91
2023-05-11T15:00:00.049Z,101104.59
2023-05-11T15:02:27.414Z,101109.75
2023-05-11T15:04:53.951Z,101117.72
2023-05-11T15:28:39.356Z,101115.84
2023-05-11T15:31:06.015Z,101101.56
2023-05-11T15:33:33.322Z,101104.53
2023-05-11T15:35:59.792Z,101102.69
2023-05-11T15:38:26.568Z,101100.44
2023-05-11T15:40:56.862Z,101097.44
2023-05-11T15:43:23.318Z,101098.75
2023-05-11T15:45:50.108Z,101096.94
2023-05-11T15:48:16.666Z,101096.41
2023-05-11T15:50:43.105Z,101098.69
2023-05-11T15:53:09.527Z,101108.22
2023-05-11T15:55:36.977Z,101097.00
2023-05-11T15:58:07.437Z,101111.97
2023-05-11T16:00:34.015Z,101113.53
2023-05-11T16:03:01.560Z,101114.16
2023-05-11T16:05:29.114Z,101121.59
2023-05-11T16:07:55.579Z,101119.03
2023-05-11T16:10:22.231Z,101118.97
2023-05-11T16:12:48.741Z,101119.28
2023-05-11T16:15:15.552Z,101122.03
2023-05-11T16:17:42.173Z,101130.00
2023-05-11T16:20:09.245Z,101125.28
2023-05-11T16:22:37.187Z,101130.50
2023-05-11T16:25:03.748Z,101128.31
2023-05-11T16:27:30.273Z,101120.53
2023-05-11T16:29:57.662Z,101125.81
2023-05-11T16:32:24.528Z,101125.34
2023-05-11T16:34:51.066Z,101129.38
2023-05-11T16:37:17.969Z,101115.88
2023-05-11T16:39:44.807Z,101114.88
2023-05-11T16:42:11.264Z,101115.25
2023-05-11T16:44:37.749Z,101121.44
2023-05-11T16:47:04.877Z,101113.94
2023-05-11T16:49:31.535Z,101118.28
2023-05-11T16:51:58.202Z,101112.88
2023-05-11T16:54:26.276Z,101117.78
2023-05-11T16:56:53.575Z,101117.41
2023-05-11T16:59:20.047Z,101106.50
2023-05-11T17:01:46.588Z,101117.22
2023-05-11T17:04:13.365Z,101117.31
2023-05-11T17:06:39.991Z,101113.41
2023-05-11T17:09:06.548Z,101112.34
2023-05-11T17:11:33.032Z,101107.16
2023-05-11T17:13:59.572Z,101112.22
2023-05-11T17:16:26.133Z,101111.09
2023-05-11T17:18:52.779Z,101111.47
2023-05-11T17:21:19.316Z,101107.53
2023-05-11T17:23:45.922Z,101111.97
2023-05-11T17:26:13.225Z,101111.53
2023-05-11T17:28:40.296Z,101118.00
2023-05-11T17:31:12.118Z,101118.78
2023-05-11T17:33:39.795Z,101116.00
2023-05-11T17:36:06.792Z,101122.47
2023-05-11T17:38:33.723Z,101116.97
2023-05-11T17:41:04.655Z,101125.34
2023-05-11T17:43:40.264Z,101129.78
2023-05-11T17:46:06.853Z,101129.94
2023-05-11T17:48:36.328Z,101132.53
2023-05-11T17:51:02.806Z,101123.50
2023-05-11T17:53:29.640Z,101122.97
2023-05-11T17:55:59.597Z,101135.00
2023-05-11T17:58:26.153Z,101136.56
2023-05-11T18:00:53.085Z,101136.81
2023-05-11T18:03:19.654Z,101134.50
2023-05-11T18:05:49.101Z,101134.13
2023-05-11T18:08:16.032Z,101126.63
2023-05-11T18:10:42.613Z,101140.31
2023-05-11T18:13:09.458Z,101134.88
2023-05-11T18:15:36.011Z,101140.97
2023-05-11T18:18:02.615Z,101130.69
2023-05-11T18:20:29.119Z,101128.41
2023-05-11T18:22:56.567Z,101142.88
2023-05-11T18:25:24.121Z,101132.50
2023-05-11T18:27:50.603Z,101137.34
2023-05-11T18:30:17.261Z,101129.41
2023-05-11T18:32:44.095Z,101134.69
2023-05-11T18:35:10.725Z,101139.47
2023-05-11T18:37:37.172Z,101137.53
2023-05-11T18:40:06.280Z,101137.63
2023-05-11T18:42:32.726Z,101142.78
2023-05-11T18:45:02.128Z,101144.03
2023-05-11T18:47:28.582Z,101138.06
2023-05-11T18:49:55.260Z,101136.16
2023-05-11T18:52:21.803Z,101144.03
2023-05-11T18:54:48.357Z,101146.53
2023-05-11T18:57:18.741Z,101152.03
2023-05-11T18:59:45.279Z,101154.81
2023-05-11T19:02:11.871Z,101148.81
2023-05-11T19:04:38.335Z,101150.47
2023-05-11T19:07:05.551Z,101156.47
2023-05-11T19:09:32.009Z,101158.53
2023-05-11T19:11:58.479Z,101158.53
2023-05-11T19:14:24.924Z,101157.41
2023-05-11T19:16:51.460Z,101168.56
2023-05-11T19:19:17.990Z,101166.91
2023-05-11T19:21:45.470Z,101169.28
2023-05-11T19:24:12.077Z,101170.50
2023-05-11T19:26:39.479Z,101169.75
2023-05-11T19:29:09.368Z,101180.16
2023-05-11T19:31:35.989Z,101175.34
2023-05-11T19:34:02.911Z,101174.56
2023-05-11T19:36:29.733Z,101172.13
2023-05-11T19:38:57.018Z,101182.09
2023-05-11T19:41:23.486Z,101174.56
2023-05-11T19:43:49.951Z,101175.72
2023-05-11T19:46:16.461Z,101181.31
2023-05-11T19:48:43.084Z,101176.16
2023-05-11T19:51:09.587Z,101179.75
2023-05-11T19:53:36.621Z,101182.47
2023-05-11T19:56:03.554Z,101180.47
2023-05-11T19:58:30.108Z,101178.47
2023-05-11T20:00:56.557Z,101172.94
2023-05-11T20:03:23.216Z,101178.09
2023-05-11T20:05:50.015Z,101180.03
2023-05-11T20:08:16.521Z,101174.03
2023-05-11T20:10:42.995Z,101183.19
2023-05-11T20:13:09.476Z,101182.03
2023-05-11T20:15:35.969Z,101180.03
2023-05-11T20:18:03.096Z,101178.47
2023-05-11T20:20:31.139Z,101184.78
2023-05-11T20:22:59.186Z,101184.78
2023-05-11T20:25:25.635Z,101176.09
2023-05-11T20:27:52.279Z,101183.19
2023-05-11T20:30:18.941Z,101184.81
2023-05-11T20:35:15.155Z,101172.88
2023-05-11T20:37:41.607Z,101171.28
2023-05-11T20:40:08.920Z,101172.88
2023-05-11T20:42:37.777Z,101172.09
2023-05-11T20:45:07.342Z,101168.16
2023-05-11T20:47:34.526Z,101169.34
2023-05-11T20:50:01.135Z,101168.16
2023-05-11T20:52:27.689Z,101166.53
2023-05-11T20:54:54.505Z,101166.63
2023-05-11T20:57:21.416Z,101165.47
2023-05-11T21:02:17.485Z,101160.75
2023-05-11T21:04:44.570Z,101165.53
2023-05-11T21:07:11.034Z,101159.53
2023-05-11T21:09:37.491Z,101157.16
2023-05-11T21:12:04.271Z,101157.88
2023-05-11T21:14:30.763Z,101153.09
2023-05-11T21:16:57.253Z,101155.50
2023-05-11T21:19:23.733Z,101147.53
2023-05-11T21:21:50.288Z,101160.63
2023-05-11T21:24:16.911Z,101155.56
2023-05-11T21:26:43.953Z,101154.31
2023-05-11T21:29:13.002Z,101155.50
2023-05-11T21:31:39.478Z,101163.88
2023-05-11T21:34:05.948Z,101156.31
2023-05-11T21:36:32.435Z,101149.91
2023-05-11T21:38:58.890Z,101158.78
2023-05-11T21:41:26.027Z,101151.63
2023-05-11T21:43:52.485Z,101152.41
2023-05-11T21:46:19.003Z,101137.78
2023-05-11T21:48:45.600Z,101153.22
2023-05-11T21:51:12.078Z,101141.31
2023-05-11T21:53:38.672Z,101144.88
2023-05-11T21:56:05.447Z,101148.16
2023-05-11T21:58:32.596Z,101148.50
2023-05-11T22:00:59.297Z,101144.97
2023-05-11T22:03:28.529Z,101148.09
2023-05-11T22:05:55.138Z,101146.16
2023-05-11T22:08:21.763Z,101144.97
2023-05-11T22:10:52.114Z,101145.38
2023-05-11T22:13:18.581Z,101141.78
2023-05-11T22:15:45.087Z,101139.38
2023-05-11T22:18:11.546Z,101139.00
2023-05-11T22:20:38.060Z,101135.09
2023-05-11T22:23:04.524Z,101136.69
2023-05-11T22:25:32.041Z,101132.69
2023-05-11T22:27:58.544Z,101133.91
2023-05-11T22:30:24.997Z,101133.63
2023-05-11T22:32:51.543Z,101129.94
2023-05-11T22:35:18.116Z,101129.59
2023-05-11T22:37:44.588Z,101126.00
2023-05-11T22:40:11.556Z,101125.78
2023-05-11T22:42:38.022Z,101115.38
2023-05-11T22:45:05.087Z,101124.19
2023-05-11T22:47:31.741Z,101115.88
2023-05-11T22:49:58.297Z,101109.56
2023-05-11T22:52:24.769Z,101101.63
2023-05-11T22:54:55.194Z,101112.78
2023-05-11T22:57:23.986Z,101106.09
2023-05-11T22:59:50.664Z,101115.56
2023-05-11T23:02:17.165Z,101104.94
2023-05-11T23:04:44.323Z,101101.38
2023-05-11T23:07:12.758Z,101091.47
2023-05-11T23:09:39.431Z,101099.78
2023-05-11T23:12:06.238Z,101100.94
2023-05-11T23:14:32.724Z,101098.94
2023-05-11T23:16:59.236Z,101099.38
2023-05-11T23:19:25.820Z,101088.63
2023-05-11T23:21:52.508Z,101089.78
2023-05-11T23:24:19.061Z,101090.59
2023-05-11T23:26:45.537Z,101085.84
2023-05-11T23:29:12.088Z,101084.63
2023-05-11T23:31:39.113Z,101088.63
2023-05-11T23:34:05.596Z,101079.47
2023-05-11T23:36:32.294Z,101080.63
2023-05-11T23:38:58.743Z,101076.28
2023-05-11T23:41:25.191Z,101081.84
2023-05-11T23:43:51.684Z,101083.81
2023-05-11T23:46:18.305Z,101075.88
2023-05-11T23:48:45.634Z,101071.16
2023-05-11T23:51:12.534Z,101070.38
2023-05-11T23:53:39.097Z,101067.63
2023-05-11T23:56:05.998Z,101070.78
2023-05-11T23:58:32.455Z,101069.22
